sensor_id;sensor_type;location;lat;lon;timestamp;pressure;altitude;pressure_sealevel;temperature
33267;BMP180;19638;49.080;11.896;2023-07-16T00:03:30;96091.00;;;24.20
33267;BMP180;19638;49.080;11.896;2023-07-16T00:07:38;96096.00;;;24.30
33267;BMP180;19638;49.080;11.896;2023-07-16T00:11:41;96119.00;;;24.30
33267;BMP180;19638;49.080;11.896;2023-07-16T00:15:44;96139.00;;;24.20
33267;BMP180;19638;49.080;11.896;2023-07-16T00:19:51;96123.00;;;24.00
33267;BMP180;19638;49.080;11.896;2023-07-16T00:23:55;96151.00;;;23.10
33267;BMP180;19638;49.080;11.896;2023-07-16T00:27:58;96163.00;;;22.20
33267;BMP180;19638;49.080;11.896;2023-07-16T00:32:03;96078.00;;;21.70
33267;BMP180;19638;49.080;11.896;2023-07-16T00:36:08;96058.00;;;21.20
33267;BMP180;19638;49.080;11.896;2023-07-16T00:40:11;96057.00;;;21.00
33267;BMP180;19638;49.080;11.896;2023-07-16T00:44:14;96049.00;;;20.70
33267;BMP180;19638;49.080;11.896;2023-07-16T00:48:18;96070.00;;;20.70
33267;BMP180;19638;49.080;11.896;2023-07-16T00:52:27;96064.00;;;20.70
33267;BMP180;19638;49.080;11.896;2023-07-16T00:56:35;96070.00;;;20.70
33267;BMP180;19638;49.080;11.896;2023-07-16T01:00:41;96070.00;;;20.80
33267;BMP180;19638;49.080;11.896;2023-07-16T01:04:44;96101.00;;;20.80
33267;BMP180;19638;49.080;11.896;2023-07-16T01:08:55;96110.00;;;20.80
33267;BMP180;19638;49.080;11.896;2023-07-16T01:13:01;96167.00;;;20.80
33267;BMP180;19638;49.080;11.896;2023-07-16T01:17:05;96206.00;;;20.70
33267;BMP180;19638;49.080;11.896;2023-07-16T01:21:08;96272.00;;;20.60
33267;BMP180;19638;49.080;11.896;2023-07-16T01:25:36;96266.00;;;20.60
33267;BMP180;19638;49.080;11.896;2023-07-16T01:29:45;96288.00;;;20.60
33267;BMP180;19638;49.080;11.896;2023-07-16T01:33:53;96311.00;;;20.60
33267;BMP180;19638;49.080;11.896;2023-07-16T01:37:57;96313.00;;;20.60
33267;BMP180;19638;49.080;11.896;2023-07-16T01:42:06;96327.00;;;20.60
33267;BMP180;19638;49.080;11.896;2023-07-16T01:46:11;96297.00;;;20.60
33267;BMP180;19638;49.080;11.896;2023-07-16T01:50:15;96302.00;;;20.60
33267;BMP180;19638;49.080;11.896;2023-07-16T01:54:20;96303.00;;;20.50
33267;BMP180;19638;49.080;11.896;2023-07-16T01:58:23;96320.00;;;20.50
33267;BMP180;19638;49.080;11.896;2023-07-16T02:02:28;96322.00;;;20.50
33267;BMP180;19638;49.080;11.896;2023-07-16T02:06:31;96322.00;;;20.50
33267;BMP180;19638;49.080;11.896;2023-07-16T02:10:35;96329.00;;;20.50
33267;BMP180;19638;49.080;11.896;2023-07-16T02:14:38;96320.00;;;20.50
33267;BMP180;19638;49.080;11.896;2023-07-16T02:18:43;96331.00;;;20.50
33267;BMP180;19638;49.080;11.896;2023-07-16T02:22:46;96328.00;;;20.50
33267;BMP180;19638;49.080;11.896;2023-07-16T02:26:51;96316.00;;;20.50
33267;BMP180;19638;49.080;11.896;2023-07-16T02:30:54;96279.00;;;20.50
33267;BMP180;19638;49.080;11.896;2023-07-16T02:35:01;96296.00;;;20.40
33267;BMP180;19638;49.080;11.896;2023-07-16T02:39:05;96293.00;;;20.40
33267;BMP180;19638;49.080;11.896;2023-07-16T02:43:11;96308.00;;;20.50
33267;BMP180;19638;49.080;11.896;2023-07-16T02:47:14;96300.00;;;20.40
33267;BMP180;19638;49.080;11.896;2023-07-16T02:51:18;96301.00;;;20.40
33267;BMP180;19638;49.080;11.896;2023-07-16T02:55:26;96317.00;;;20.40
33267;BMP180;19638;49.080;11.896;2023-07-16T02:59:31;96332.00;;;20.40
33267;BMP180;19638;49.080;11.896;2023-07-16T03:03:34;96354.00;;;20.30
33267;BMP180;19638;49.080;11.896;2023-07-16T03:07:39;96375.00;;;20.30
33267;BMP180;19638;49.080;11.896;2023-07-16T03:11:45;96376.00;;;20.30
33267;BMP180;19638;49.080;11.896;2023-07-16T03:15:48;96389.00;;;20.30
33267;BMP180;19638;49.080;11.896;2023-07-16T03:19:52;96374.00;;;20.30
33267;BMP180;19638;49.080;11.896;2023-07-16T03:23:56;96359.00;;;20.30
33267;BMP180;19638;49.080;11.896;2023-07-16T03:28:01;96355.00;;;20.30
33267;BMP180;19638;49.080;11.896;2023-07-16T03:32:07;96354.00;;;20.30
33267;BMP180;19638;49.080;11.896;2023-07-16T03:36:12;96332.00;;;20.30
33267;BMP180;19638;49.080;11.896;2023-07-16T03:40:19;96327.00;;;20.30
33267;BMP180;19638;49.080;11.896;2023-07-16T03:44:25;96304.00;;;20.30
33267;BMP180;19638;49.080;11.896;2023-07-16T03:48:28;96300.00;;;20.30
33267;BMP180;19638;49.080;11.896;2023-07-16T03:52:31;96295.00;;;20.30
33267;BMP180;19638;49.080;11.896;2023-07-16T03:56:36;96298.00;;;20.30
33267;BMP180;19638;49.080;11.896;2023-07-16T04:00:41;96307.00;;;20.20
33267;BMP180;19638;49.080;11.896;2023-07-16T04:04:46;96322.00;;;20.20
33267;BMP180;19638;49.080;11.896;2023-07-16T04:08:49;96330.00;;;20.30
33267;BMP180;19638;49.080;11.896;2023-07-16T04:12:55;96329.00;;;20.30
33267;BMP180;19638;49.080;11.896;2023-07-16T04:17:00;96334.00;;;20.30
33267;BMP180;19638;49.080;11.896;2023-07-16T04:21:04;96359.00;;;20.30
33267;BMP180;19638;49.080;11.896;2023-07-16T04:25:08;96380.00;;;20.30
33267;BMP180;19638;49.080;11.896;2023-07-16T04:29:14;96380.00;;;20.30
33267;BMP180;19638;49.080;11.896;2023-07-16T04:33:17;96395.00;;;20.20
33267;BMP180;19638;49.080;11.896;2023-07-16T04:37:21;96407.00;;;20.20
33267;BMP180;19638;49.080;11.896;2023-07-16T04:41:27;96409.00;;;20.10
33267;BMP180;19638;49.080;11.896;2023-07-16T04:45:32;96418.00;;;20.10
33267;BMP180;19638;49.080;11.896;2023-07-16T04:49:35;96428.00;;;20.10
33267;BMP180;19638;49.080;11.896;2023-07-16T04:53:38;96437.00;;;20.10
33267;BMP180;19638;49.080;11.896;2023-07-16T04:57:41;96447.00;;;20.10
33267;BMP180;19638;49.080;11.896;2023-07-16T05:01:46;96448.00;;;20.10
33267;BMP180;19638;49.080;11.896;2023-07-16T05:05:49;96455.00;;;20.00
33267;BMP180;19638;49.080;11.896;2023-07-16T05:09:58;96448.00;;;20.00
33267;BMP180;19638;49.080;11.896;2023-07-16T05:14:01;96455.00;;;20.00
33267;BMP180;19638;49.080;11.896;2023-07-16T05:18:08;96448.00;;;19.90
33267;BMP180;19638;49.080;11.896;2023-07-16T05:22:11;96439.00;;;20.00
33267;BMP180;19638;49.080;11.896;2023-07-16T05:26:17;96455.00;;;20.00
33267;BMP180;19638;49.080;11.896;2023-07-16T05:30:21;96477.00;;;19.90
33267;BMP180;19638;49.080;11.896;2023-07-16T05:34:29;96483.00;;;19.90
33267;BMP180;19638;49.080;11.896;2023-07-16T05:38:32;96473.00;;;20.00
33267;BMP180;19638;49.080;11.896;2023-07-16T05:42:37;96466.00;;;20.00
33267;BMP180;19638;49.080;11.896;2023-07-16T05:46:47;96475.00;;;20.10
33267;BMP180;19638;49.080;11.896;2023-07-16T05:50:54;96478.00;;;20.20
33267;BMP180;19638;49.080;11.896;2023-07-16T05:54:58;96483.00;;;20.20
33267;BMP180;19638;49.080;11.896;2023-07-16T05:59:02;96497.00;;;20.30
33267;BMP180;19638;49.080;11.896;2023-07-16T06:03:07;96488.00;;;20.40
33267;BMP180;19638;49.080;11.896;2023-07-16T06:07:13;96501.00;;;20.40
33267;BMP180;19638;49.080;11.896;2023-07-16T06:11:23;96502.00;;;20.40
33267;BMP180;19638;49.080;11.896;2023-07-16T06:15:29;96500.00;;;20.40
33267;BMP180;19638;49.080;11.896;2023-07-16T06:19:37;96527.00;;;20.50
33267;BMP180;19638;49.080;11.896;2023-07-16T06:23:42;96540.00;;;20.60
33267;BMP180;19638;49.080;11.896;2023-07-16T06:27:45;96551.00;;;20.50
33267;BMP180;19638;49.080;11.896;2023-07-16T06:31:57;96545.00;;;20.50
33267;BMP180;19638;49.080;11.896;2023-07-16T06:36:01;96543.00;;;20.50
33267;BMP180;19638;49.080;11.896;2023-07-16T06:40:09;96552.00;;;20.60
33267;BMP180;19638;49.080;11.896;2023-07-16T06:44:13;96556.00;;;20.60
33267;BMP180;19638;49.080;11.896;2023-07-16T06:48:16;96557.00;;;20.50
33267;BMP180;19638;49.080;11.896;2023-07-16T06:52:23;96568.00;;;20.60
33267;BMP180;19638;49.080;11.896;2023-07-16T06:56:31;96570.00;;;20.70
33267;BMP180;19638;49.080;11.896;2023-07-16T07:00:35;96572.00;;;20.80
33267;BMP180;19638;49.080;11.896;2023-07-16T07:04:38;96566.00;;;20.80
33267;BMP180;19638;49.080;11.896;2023-07-16T07:08:41;96562.00;;;20.90
33267;BMP180;19638;49.080;11.896;2023-07-16T07:12:46;96564.00;;;20.80
33267;BMP180;19638;49.080;11.896;2023-07-16T07:16:53;96581.00;;;20.80
33267;BMP180;19638;49.080;11.896;2023-07-16T07:20:56;96570.00;;;20.90
33267;BMP180;19638;49.080;11.896;2023-07-16T07:25:00;96566.00;;;21.20
33267;BMP180;19638;49.080;11.896;2023-07-16T07:29:06;96566.00;;;21.50
33267;BMP180;19638;49.080;11.896;2023-07-16T07:33:10;96562.00;;;21.70
33267;BMP180;19638;49.080;11.896;2023-07-16T07:37:15;96573.00;;;21.60
33267;BMP180;19638;49.080;11.896;2023-07-16T07:41:22;96580.00;;;21.50
33267;BMP180;19638;49.080;11.896;2023-07-16T07:45:28;96581.00;;;21.60
33267;BMP180;19638;49.080;11.896;2023-07-16T07:49:31;96569.00;;;21.70
33267;BMP180;19638;49.080;11.896;2023-07-16T07:53:34;96581.00;;;21.80
33267;BMP180;19638;49.080;11.896;2023-07-16T07:57:38;96570.00;;;21.90
33267;BMP180;19638;49.080;11.896;2023-07-16T08:01:45;96567.00;;;21.90
33267;BMP180;19638;49.080;11.896;2023-07-16T08:05:52;96573.00;;;22.00
33267;BMP180;19638;49.080;11.896;2023-07-16T08:09:55;96581.00;;;22.20
33267;BMP180;19638;49.080;11.896;2023-07-16T08:13:58;96578.00;;;22.40
33267;BMP180;19638;49.080;11.896;2023-07-16T08:18:03;96581.00;;;22.50
33267;BMP180;19638;49.080;11.896;2023-07-16T08:22:08;96586.00;;;22.40
33267;BMP180;19638;49.080;11.896;2023-07-16T08:26:16;96588.00;;;22.40
33267;BMP180;19638;49.080;11.896;2023-07-16T08:30:20;96580.00;;;22.30
33267;BMP180;19638;49.080;11.896;2023-07-16T08:34:24;96586.00;;;22.20
33267;BMP180;19638;49.080;11.896;2023-07-16T08:38:32;96579.00;;;22.30
33267;BMP180;19638;49.080;11.896;2023-07-16T08:42:38;96583.00;;;22.30
33267;BMP180;19638;49.080;11.896;2023-07-16T08:46:42;96586.00;;;22.20
33267;BMP180;19638;49.080;11.896;2023-07-16T08:50:47;96563.00;;;22.40
33267;BMP180;19638;49.080;11.896;2023-07-16T08:54:55;96552.00;;;22.50
33267;BMP180;19638;49.080;11.896;2023-07-16T08:58:59;96551.00;;;22.20
33267;BMP180;19638;49.080;11.896;2023-07-16T09:03:05;96570.00;;;21.80
33267;BMP180;19638;49.080;11.896;2023-07-16T09:07:09;96584.00;;;21.70
33267;BMP180;19638;49.080;11.896;2023-07-16T09:11:13;96578.00;;;21.80
33267;BMP180;19638;49.080;11.896;2023-07-16T09:15:20;96587.00;;;22.20
33267;BMP180;19638;49.080;11.896;2023-07-16T09:19:25;96584.00;;;22.50
33267;BMP180;19638;49.080;11.896;2023-07-16T09:23:32;96584.00;;;22.60
33267;BMP180;19638;49.080;11.896;2023-07-16T09:27:37;96584.00;;;22.40
33267;BMP180;19638;49.080;11.896;2023-07-16T09:31:52;96593.00;;;22.30
33267;BMP180;19638;49.080;11.896;2023-07-16T09:35:55;96590.00;;;22.30
33267;BMP180;19638;49.080;11.896;2023-07-16T09:40:00;96599.00;;;22.60
33267;BMP180;19638;49.080;11.896;2023-07-16T09:44:07;96594.00;;;22.80
33267;BMP180;19638;49.080;11.896;2023-07-16T09:48:13;96589.00;;;23.40
33267;BMP180;19638;49.080;11.896;2023-07-16T09:52:17;96597.00;;;24.00
33267;BMP180;19638;49.080;11.896;2023-07-16T09:56:25;96592.00;;;24.70
33267;BMP180;19638;49.080;11.896;2023-07-16T10:00:34;96593.00;;;25.40
33267;BMP180;19638;49.080;11.896;2023-07-16T10:04:41;96591.00;;;26.50
33267;BMP180;19638;49.080;11.896;2023-07-16T10:08:49;96590.00;;;27.00
33267;BMP180;19638;49.080;11.896;2023-07-16T10:13:01;96586.00;;;26.80
33267;BMP180;19638;49.080;11.896;2023-07-16T10:17:11;96583.00;;;26.50
33267;BMP180;19638;49.080;11.896;2023-07-16T10:21:23;96592.00;;;26.30
33267;BMP180;19638;49.080;11.896;2023-07-16T10:25:27;96594.00;;;25.90
33267;BMP180;19638;49.080;11.896;2023-07-16T10:29:35;96592.00;;;25.60
33267;BMP180;19638;49.080;11.896;2023-07-16T10:33:39;96593.00;;;25.60
33267;BMP180;19638;49.080;11.896;2023-07-16T10:37:43;96583.00;;;25.90
33267;BMP180;19638;49.080;11.896;2023-07-16T10:41:46;96580.00;;;26.30
33267;BMP180;19638;49.080;11.896;2023-07-16T10:45:51;96571.00;;;26.40
33267;BMP180;19638;49.080;11.896;2023-07-16T10:49:55;96573.00;;;26.80
33267;BMP180;19638;49.080;11.896;2023-07-16T10:54:00;96563.00;;;26.90
33267;BMP180;19638;49.080;11.896;2023-07-16T10:58:10;96564.00;;;26.70
33267;BMP180;19638;49.080;11.896;2023-07-16T11:02:16;96572.00;;;26.30
33267;BMP180;19638;49.080;11.896;2023-07-16T11:06:19;96581.00;;;26.60
33267;BMP180;19638;49.080;11.896;2023-07-16T11:10:23;96585.00;;;27.00
33267;BMP180;19638;49.080;11.896;2023-07-16T11:14:27;96570.00;;;26.90
33267;BMP180;19638;49.080;11.896;2023-07-16T11:18:32;96577.00;;;27.20
33267;BMP180;19638;49.080;11.896;2023-07-16T11:22:37;96583.00;;;27.20
33267;BMP180;19638;49.080;11.896;2023-07-16T11:26:49;96578.00;;;27.20
33267;BMP180;19638;49.080;11.896;2023-07-16T11:30:52;96589.00;;;27.80
33267;BMP180;19638;49.080;11.896;2023-07-16T11:35:01;96562.00;;;28.40
33267;BMP180;19638;49.080;11.896;2023-07-16T11:39:05;96574.00;;;28.90
33267;BMP180;19638;49.080;11.896;2023-07-16T11:43:12;96574.00;;;29.50
33267;BMP180;19638;49.080;11.896;2023-07-16T11:47:18;96570.00;;;30.90
33267;BMP180;19638;49.080;11.896;2023-07-16T11:51:22;96570.00;;;30.90
33267;BMP180;19638;49.080;11.896;2023-07-16T11:55:28;96558.00;;;31.20
33267;BMP180;19638;49.080;11.896;2023-07-16T11:59:31;96553.00;;;32.10
33267;BMP180;19638;49.080;11.896;2023-07-16T12:03:34;96557.00;;;32.80
33267;BMP180;19638;49.080;11.896;2023-07-16T12:07:39;96559.00;;;33.00
33267;BMP180;19638;49.080;11.896;2023-07-16T12:11:43;96556.00;;;32.60
33267;BMP180;19638;49.080;11.896;2023-07-16T12:15:46;96558.00;;;31.60
33267;BMP180;19638;49.080;11.896;2023-07-16T12:19:49;96551.00;;;31.20
33267;BMP180;19638;49.080;11.896;2023-07-16T12:23:55;96548.00;;;31.20
33267;BMP180;19638;49.080;11.896;2023-07-16T12:27:59;96541.00;;;31.70
33267;BMP180;19638;49.080;11.896;2023-07-16T12:32:04;96543.00;;;31.50
33267;BMP180;19638;49.080;11.896;2023-07-16T12:36:14;96538.00;;;31.80
33267;BMP180;19638;49.080;11.896;2023-07-16T12:40:19;96538.00;;;32.60
33267;BMP180;19638;49.080;11.896;2023-07-16T12:44:22;96539.00;;;32.10
33267;BMP180;19638;49.080;11.896;2023-07-16T12:48:30;96543.00;;;31.40
33267;BMP180;19638;49.080;11.896;2023-07-16T12:52:33;96543.00;;;31.10
33267;BMP180;19638;49.080;11.896;2023-07-16T12:56:38;96531.00;;;30.90
33267;BMP180;19638;49.080;11.896;2023-07-16T13:00:41;96534.00;;;30.80
33267;BMP180;19638;49.080;11.896;2023-07-16T13:04:46;96529.00;;;31.00
33267;BMP180;19638;49.080;11.896;2023-07-16T13:08:50;96531.00;;;31.80
33267;BMP180;19638;49.080;11.896;2023-07-16T13:12:55;96535.00;;;32.00
33267;BMP180;19638;49.080;11.896;2023-07-16T13:17:04;96532.00;;;32.70
33267;BMP180;19638;49.080;11.896;2023-07-16T13:21:10;96522.00;;;32.80
33267;BMP180;19638;49.080;11.896;2023-07-16T13:25:13;96522.00;;;32.70
33267;BMP180;19638;49.080;11.896;2023-07-16T13:29:20;96504.00;;;32.60
33267;BMP180;19638;49.080;11.896;2023-07-16T13:33:28;96501.00;;;33.20
33267;BMP180;19638;49.080;11.896;2023-07-16T13:37:33;96510.00;;;33.40
33267;BMP180;19638;49.080;11.896;2023-07-16T13:41:39;96509.00;;;33.60
33267;BMP180;19638;49.080;11.896;2023-07-16T13:45:45;96503.00;;;34.40
33267;BMP180;19638;49.080;11.896;2023-07-16T13:49:49;96510.00;;;34.90
33267;BMP180;19638;49.080;11.896;2023-07-16T13:53:54;96507.00;;;34.90
33267;BMP180;19638;49.080;11.896;2023-07-16T13:57:57;96512.00;;;34.90
33267;BMP180;19638;49.080;11.896;2023-07-16T14:02:04;96508.00;;;34.40
33267;BMP180;19638;49.080;11.896;2023-07-16T14:06:07;96505.00;;;34.00
33267;BMP180;19638;49.080;11.896;2023-07-16T14:10:13;96498.00;;;33.60
33267;BMP180;19638;49.080;11.896;2023-07-16T14:14:17;96495.00;;;33.90
33267;BMP180;19638;49.080;11.896;2023-07-16T14:18:22;96500.00;;;34.50
33267;BMP180;19638;49.080;11.896;2023-07-16T14:22:25;96496.00;;;35.10
33267;BMP180;19638;49.080;11.896;2023-07-16T14:26:31;96504.00;;;35.20
33267;BMP180;19638;49.080;11.896;2023-07-16T14:30:35;96502.00;;;34.40
33267;BMP180;19638;49.080;11.896;2023-07-16T14:34:39;96490.00;;;33.70
33267;BMP180;19638;49.080;11.896;2023-07-16T14:38:46;96493.00;;;33.30
33267;BMP180;19638;49.080;11.896;2023-07-16T14:42:56;96490.00;;;33.10
33267;BMP180;19638;49.080;11.896;2023-07-16T14:47:01;96496.00;;;33.10
33267;BMP180;19638;49.080;11.896;2023-07-16T14:51:07;96474.00;;;33.00
33267;BMP180;19638;49.080;11.896;2023-07-16T14:55:11;96471.00;;;33.40
33267;BMP180;19638;49.080;11.896;2023-07-16T14:59:14;96490.00;;;32.20
33267;BMP180;19638;49.080;11.896;2023-07-16T15:03:20;96486.00;;;31.70
33267;BMP180;19638;49.080;11.896;2023-07-16T15:07:25;96479.00;;;31.40
33267;BMP180;19638;49.080;11.896;2023-07-16T15:11:30;96464.00;;;31.90
33267;BMP180;19638;49.080;11.896;2023-07-16T15:15:37;96462.00;;;33.10
33267;BMP180;19638;49.080;11.896;2023-07-16T15:19:40;96464.00;;;33.30
33267;BMP180;19638;49.080;11.896;2023-07-16T15:23:44;96467.00;;;33.40
33267;BMP180;19638;49.080;11.896;2023-07-16T15:27:49;96465.00;;;33.10
33267;BMP180;19638;49.080;11.896;2023-07-16T15:31:55;96467.00;;;32.90
33267;BMP180;19638;49.080;11.896;2023-07-16T15:36:01;96461.00;;;32.80
33267;BMP180;19638;49.080;11.896;2023-07-16T15:40:14;96465.00;;;33.70
33267;BMP180;19638;49.080;11.896;2023-07-16T15:44:19;96464.00;;;34.00
33267;BMP180;19638;49.080;11.896;2023-07-16T15:48:22;96460.00;;;34.20
33267;BMP180;19638;49.080;11.896;2023-07-16T15:52:25;96455.00;;;34.20
33267;BMP180;19638;49.080;11.896;2023-07-16T15:56:32;96451.00;;;33.80
33267;BMP180;19638;49.080;11.896;2023-07-16T16:00:35;96451.00;;;34.00
33267;BMP180;19638;49.080;11.896;2023-07-16T16:04:41;96451.00;;;34.10
33267;BMP180;19638;49.080;11.896;2023-07-16T16:08:44;96452.00;;;34.10
33267;BMP180;19638;49.080;11.896;2023-07-16T16:12:49;96456.00;;;33.70
33267;BMP180;19638;49.080;11.896;2023-07-16T16:16:56;96465.00;;;33.20
33267;BMP180;19638;49.080;11.896;2023-07-16T16:21:10;96462.00;;;33.10
33267;BMP180;19638;49.080;11.896;2023-07-16T16:25:22;96463.00;;;33.20
33267;BMP180;19638;49.080;11.896;2023-07-16T16:29:29;96453.00;;;33.40
33267;BMP180;19638;49.080;11.896;2023-07-16T16:33:32;96457.00;;;33.30
33267;BMP180;19638;49.080;11.896;2023-07-16T16:37:37;96459.00;;;33.30
33267;BMP180;19638;49.080;11.896;2023-07-16T16:41:48;96449.00;;;33.60
33267;BMP180;19638;49.080;11.896;2023-07-16T16:45:54;96449.00;;;33.80
33267;BMP180;19638;49.080;11.896;2023-07-16T16:49:58;96452.00;;;33.70
33267;BMP180;19638;49.080;11.896;2023-07-16T16:54:01;96451.00;;;34.00
33267;BMP180;19638;49.080;11.896;2023-07-16T16:58:05;96456.00;;;33.90
33267;BMP180;19638;49.080;11.896;2023-07-16T17:02:10;96461.00;;;34.10
33267;BMP180;19638;49.080;11.896;2023-07-16T17:06:13;96459.00;;;34.20
33267;BMP180;19638;49.080;11.896;2023-07-16T17:10:18;96456.00;;;33.80
33267;BMP180;19638;49.080;11.896;2023-07-16T17:14:22;96456.00;;;33.40
33267;BMP180;19638;49.080;11.896;2023-07-16T17:18:27;96449.00;;;32.80
33267;BMP180;19638;49.080;11.896;2023-07-16T17:22:36;96443.00;;;32.50
33267;BMP180;19638;49.080;11.896;2023-07-16T17:26:44;96451.00;;;32.60
33267;BMP180;19638;49.080;11.896;2023-07-16T17:30:47;96443.00;;;32.50
33267;BMP180;19638;49.080;11.896;2023-07-16T17:34:52;96447.00;;;32.90
33267;BMP180;19638;49.080;11.896;2023-07-16T17:38:57;96444.00;;;32.90
33267;BMP180;19638;49.080;11.896;2023-07-16T17:43:01;96448.00;;;33.30
33267;BMP180;19638;49.080;11.896;2023-07-16T17:47:05;96442.00;;;34.00
33267;BMP180;19638;49.080;11.896;2023-07-16T17:51:14;96452.00;;;34.10
33267;BMP180;19638;49.080;11.896;2023-07-16T17:55:18;96461.00;;;33.90
33267;BMP180;19638;49.080;11.896;2023-07-16T17:59:22;96468.00;;;33.80
33267;BMP180;19638;49.080;11.896;2023-07-16T18:03:25;96468.00;;;33.10
33267;BMP180;19638;49.080;11.896;2023-07-16T18:07:49;96476.00;;;31.90
33267;BMP180;19638;49.080;11.896;2023-07-16T18:12:09;96470.00;;;31.10
33267;BMP180;19638;49.080;11.896;2023-07-16T18:16:12;96464.00;;;30.50
33267;BMP180;19638;49.080;11.896;2023-07-16T18:20:18;96465.00;;;30.00
33267;BMP180;19638;49.080;11.896;2023-07-16T18:24:24;96469.00;;;29.60
33267;BMP180;19638;49.080;11.896;2023-07-16T18:28:27;96463.00;;;29.10
33267;BMP180;19638;49.080;11.896;2023-07-16T18:32:32;96465.00;;;28.70
33267;BMP180;19638;49.080;11.896;2023-07-16T18:36:35;96469.00;;;28.40
33267;BMP180;19638;49.080;11.896;2023-07-16T18:40:42;96465.00;;;28.10
33267;BMP180;19638;49.080;11.896;2023-07-16T18:44:47;96476.00;;;27.80
33267;BMP180;19638;49.080;11.896;2023-07-16T18:48:51;96471.00;;;27.60
33267;BMP180;19638;49.080;11.896;2023-07-16T18:52:55;96471.00;;;27.30
33267;BMP180;19638;49.080;11.896;2023-07-16T18:57:03;96464.00;;;26.90
33267;BMP180;19638;49.080;11.896;2023-07-16T19:01:07;96469.00;;;26.50
33267;BMP180;19638;49.080;11.896;2023-07-16T19:05:10;96465.00;;;26.20
33267;BMP180;19638;49.080;11.896;2023-07-16T19:09:13;96467.00;;;25.90
33267;BMP180;19638;49.080;11.896;2023-07-16T19:13:18;96473.00;;;25.60
33267;BMP180;19638;49.080;11.896;2023-07-16T19:17:24;96470.00;;;25.10
33267;BMP180;19638;49.080;11.896;2023-07-16T19:21:29;96473.00;;;24.80
33267;BMP180;19638;49.080;11.896;2023-07-16T19:25:33;96474.00;;;24.50
33267;BMP180;19638;49.080;11.896;2023-07-16T19:29:39;96483.00;;;24.10
33267;BMP180;19638;49.080;11.896;2023-07-16T19:33:45;96477.00;;;23.90
33267;BMP180;19638;49.080;11.896;2023-07-16T19:37:51;96488.00;;;23.60
33267;BMP180;19638;49.080;11.896;2023-07-16T19:41:58;96479.00;;;23.40
33267;BMP180;19638;49.080;11.896;2023-07-16T19:46:06;96473.00;;;23.20
33267;BMP180;19638;49.080;11.896;2023-07-16T19:50:11;96467.00;;;23.00
33267;BMP180;19638;49.080;11.896;2023-07-16T19:54:14;96483.00;;;22.90
33267;BMP180;19638;49.080;11.896;2023-07-16T19:58:17;96478.00;;;22.80
33267;BMP180;19638;49.080;11.896;2023-07-16T20:02:24;96487.00;;;22.80
33267;BMP180;19638;49.080;11.896;2023-07-16T20:06:27;96477.00;;;22.80
33267;BMP180;19638;49.080;11.896;2023-07-16T20:10:32;96480.00;;;22.60
33267;BMP180;19638;49.080;11.896;2023-07-16T20:14:38;96473.00;;;22.50
33267;BMP180;19638;49.080;11.896;2023-07-16T20:18:42;96487.00;;;22.30
33267;BMP180;19638;49.080;11.896;2023-07-16T20:22:46;96494.00;;;22.30
33267;BMP180;19638;49.080;11.896;2023-07-16T20:26:55;96505.00;;;22.30
33267;BMP180;19638;49.080;11.896;2023-07-16T20:30:58;96505.00;;;22.30
33267;BMP180;19638;49.080;11.896;2023-07-16T20:35:03;96512.00;;;22.50
33267;BMP180;19638;49.080;11.896;2023-07-16T20:39:08;96510.00;;;22.60
33267;BMP180;19638;49.080;11.896;2023-07-16T20:43:11;96515.00;;;22.70
33267;BMP180;19638;49.080;11.896;2023-07-16T20:47:18;96507.00;;;22.70
33267;BMP180;19638;49.080;11.896;2023-07-16T20:51:23;96494.00;;;22.60
33267;BMP180;19638;49.080;11.896;2023-07-16T20:55:30;96504.00;;;22.50
33267;BMP180;19638;49.080;11.896;2023-07-16T20:59:33;96501.00;;;22.40
33267;BMP180;19638;49.080;11.896;2023-07-16T21:03:39;96490.00;;;22.30
33267;BMP180;19638;49.080;11.896;2023-07-16T21:07:47;96496.00;;;22.30
33267;BMP180;19638;49.080;11.896;2023-07-16T21:11:51;96513.00;;;22.30
33267;BMP180;19638;49.080;11.896;2023-07-16T21:15:55;96509.00;;;22.40
33267;BMP180;19638;49.080;11.896;2023-07-16T21:20:01;96508.00;;;22.50
33267;BMP180;19638;49.080;11.896;2023-07-16T21:24:08;96495.00;;;22.50
33267;BMP180;19638;49.080;11.896;2023-07-16T21:28:14;96512.00;;;22.50
33267;BMP180;19638;49.080;11.896;2023-07-16T21:32:23;96499.00;;;22.50
33267;BMP180;19638;49.080;11.896;2023-07-16T21:36:26;96504.00;;;22.40
33267;BMP180;19638;49.080;11.896;2023-07-16T21:40:31;96509.00;;;22.50
33267;BMP180;19638;49.080;11.896;2023-07-16T21:44:36;96513.00;;;22.50
33267;BMP180;19638;49.080;11.896;2023-07-16T21:48:42;96509.00;;;22.40
33267;BMP180;19638;49.080;11.896;2023-07-16T21:52:47;96510.00;;;22.40
33267;BMP180;19638;49.080;11.896;2023-07-16T21:56:53;96504.00;;;22.50
33267;BMP180;19638;49.080;11.896;2023-07-16T22:00:57;96493.00;;;22.50
33267;BMP180;19638;49.080;11.896;2023-07-16T22:05:00;96486.00;;;22.30
33267;BMP180;19638;49.080;11.896;2023-07-16T22:09:05;96487.00;;;22.20
33267;BMP180;19638;49.080;11.896;2023-07-16T22:13:11;96500.00;;;22.10
33267;BMP180;19638;49.080;11.896;2023-07-16T22:17:16;96486.00;;;21.90
33267;BMP180;19638;49.080;11.896;2023-07-16T22:21:20;96480.00;;;21.80
33267;BMP180;19638;49.080;11.896;2023-07-16T22:25:26;96480.00;;;21.80
33267;BMP180;19638;49.080;11.896;2023-07-16T22:29:32;96495.00;;;21.70
33267;BMP180;19638;49.080;11.896;2023-07-16T22:33:38;96493.00;;;21.50
33267;BMP180;19638;49.080;11.896;2023-07-16T22:37:41;96490.00;;;21.40
33267;BMP180;19638;49.080;11.896;2023-07-16T22:41:59;96498.00;;;21.30
33267;BMP180;19638;49.080;11.896;2023-07-16T22:46:10;96517.00;;;21.10
33267;BMP180;19638;49.080;11.896;2023-07-16T22:50:13;96512.00;;;21.00
33267;BMP180;19638;49.080;11.896;2023-07-16T22:54:20;96517.00;;;20.90
33267;BMP180;19638;49.080;11.896;2023-07-16T22:58:23;96519.00;;;20.80
33267;BMP180;19638;49.080;11.896;2023-07-16T23:02:28;96517.00;;;20.70
33267;BMP180;19638;49.080;11.896;2023-07-16T23:06:31;96520.00;;;20.50
33267;BMP180;19638;49.080;11.896;2023-07-16T23:10:38;96513.00;;;20.40
33267;BMP180;19638;49.080;11.896;2023-07-16T23:14:41;96509.00;;;20.30